Eaton, Ohio
Current Conditions -  °F | °C
As of 9:55 PM on Thursday 27 Nov 2014 (Local Time) from KMWO Reporting Station
Overcast Overcast  
Wind Chill: 23°   Ceiling: 3500
Heat Index: 31°   Visibility: 10mi
Dew Point: 20°   Wind: 8mph
Humidity: 65%   Direction: 280°W
Pressure: 30.4"   Gusts: NA
Location:  39.75°N, 84.64°W
Report Text: KMWO 280255Z AUTO 28007KT 10SM OVC035 M01/M06 A3040 RMK AO2 T10071065
Loading
Personal Weather Stations






























Interactive Weather Map New forecast layout! Learn more

10-Day Weather Forecast

Advertisements
Track Severe Weather on mobile